createdAt,value
2023-05-31T00:00:24.236Z,8.40
2023-05-31T00:05:47.672Z,8.34
2023-05-31T00:10:51.294Z,8.29
2023-05-31T00:15:54.906Z,8.23
2023-05-31T00:20:58.607Z,8.19
2023-05-31T00:26:02.450Z,8.11
2023-05-31T00:31:06.374Z,7.99
2023-05-31T00:36:09.995Z,7.88
2023-05-31T00:41:13.511Z,7.78
2023-05-31T00:46:27.550Z,7.75
2023-05-31T00:51:32.988Z,7.72
2023-05-31T00:56:36.553Z,7.61
2023-05-31T01:01:39.997Z,7.55
2023-05-31T01:06:43.687Z,7.52
2023-05-31T01:11:53.562Z,7.44
2023-05-31T01:17:05.460Z,7.39
2023-05-31T01:22:22.085Z,7.34
2023-05-31T01:27:27.408Z,7.34
2023-05-31T01:32:31.476Z,7.27
2023-05-31T01:37:34.982Z,7.18
2023-05-31T01:42:38.906Z,7.14
2023-05-31T01:47:44.264Z,7.07
2023-05-31T01:52:47.887Z,7.01
2023-05-31T01:57:53.335Z,6.98
2023-05-31T02:02:57.572Z,6.97
2023-05-31T02:08:01.409Z,6.96
2023-05-31T02:13:05.019Z,6.95
2023-05-31T02:18:09.305Z,6.88
2023-05-31T02:23:12.924Z,6.87
2023-05-31T02:28:17.326Z,6.81
2023-05-31T02:33:21.033Z,6.76
2023-05-31T02:38:24.544Z,6.74
2023-05-31T02:43:28.265Z,6.76
2023-05-31T02:48:31.792Z,6.78
2023-05-31T02:53:35.396Z,6.81
2023-05-31T02:58:38.811Z,6.90
2023-05-31T03:03:43.297Z,6.93
2023-05-31T03:08:47.484Z,6.94
2023-05-31T03:13:50.900Z,7.02
2023-05-31T03:18:54.308Z,7.11
2023-05-31T03:23:57.823Z,7.23
2023-05-31T03:29:01.242Z,7.39
2023-05-31T03:34:04.802Z,7.58
2023-05-31T03:39:08.499Z,7.74
2023-05-31T03:44:11.988Z,7.98
2023-05-31T03:49:15.506Z,8.24
2023-05-31T03:54:18.959Z,8.41
2023-05-31T03:59:22.533Z,8.53
2023-05-31T04:04:26.143Z,8.68
2023-05-31T04:09:30.498Z,8.84
2023-05-31T04:14:34.208Z,9.02
2023-05-31T04:19:37.623Z,9.23
2023-05-31T04:24:41.138Z,9.47
2023-05-31T04:29:44.612Z,9.70
2023-05-31T04:34:49.380Z,9.94
2023-05-31T04:39:52.811Z,10.17
2023-05-31T04:45:02.433Z,10.40
2023-05-31T04:50:06.390Z,10.56
2023-05-31T04:55:10.471Z,10.71
2023-05-31T05:00:17.319Z,10.80
2023-05-31T05:05:20.941Z,10.96
2023-05-31T05:10:25.185Z,11.08
2023-05-31T05:15:28.786Z,11.21
2023-05-31T05:20:32.447Z,11.39
2023-05-31T05:25:37.444Z,11.58
2023-05-31T05:30:40.998Z,11.70
2023-05-31T05:35:44.585Z,11.83
2023-05-31T05:40:48.117Z,12.04
2023-05-31T05:45:51.616Z,12.18
2023-05-31T05:50:55.131Z,12.33
2023-05-31T05:55:58.749Z,12.50
2023-05-31T06:01:03.915Z,12.66
2023-05-31T06:06:07.687Z,12.80
2023-05-31T06:11:11.807Z,13.02
2023-05-31T06:16:16.008Z,13.22
2023-05-31T06:21:19.505Z,13.40
2023-05-31T06:26:24.034Z,13.64
2023-05-31T06:31:28.867Z,13.81
2023-05-31T06:36:33.273Z,14.01
2023-05-31T06:41:37.967Z,14.20
2023-05-31T06:46:41.719Z,14.33
2023-05-31T06:51:45.315Z,14.48
2023-05-31T06:56:48.817Z,14.67
2023-05-31T07:01:54.018Z,14.87
2023-05-31T07:06:57.489Z,15.08
2023-05-31T07:12:01.970Z,15.27
2023-05-31T07:17:05.954Z,15.40
2023-05-31T07:22:09.266Z,15.62
2023-05-31T07:27:12.890Z,15.81
2023-05-31T07:32:16.635Z,15.90
2023-05-31T07:37:20.120Z,15.99
2023-05-31T07:42:23.738Z,16.08
2023-05-31T07:47:27.264Z,16.21
2023-05-31T07:52:30.978Z,16.36
2023-05-31T07:57:34.511Z,16.49
2023-05-31T08:02:38.200Z,16.73
2023-05-31T08:07:42.239Z,16.89
2023-05-31T08:12:45.910Z,17.00
2023-05-31T08:17:49.434Z,17.12
2023-05-31T08:22:54.830Z,17.30
2023-05-31T08:27:58.451Z,17.56
2023-05-31T08:33:03.522Z,17.73
2023-05-31T08:38:07.324Z,17.87
2023-05-31T08:43:17.273Z,17.96
2023-05-31T08:48:39.853Z,18.17
2023-05-31T08:53:44.704Z,18.29
2023-05-31T08:58:52.067Z,18.43
2023-05-31T09:03:55.621Z,18.65
2023-05-31T09:08:59.249Z,18.95
2023-05-31T09:14:02.959Z,19.20
2023-05-31T09:19:07.092Z,19.32
2023-05-31T09:24:11.747Z,19.21
2023-05-31T09:29:16.641Z,19.33
2023-05-31T09:34:28.816Z,19.57
2023-05-31T09:39:32.935Z,19.57
2023-05-31T09:44:36.850Z,19.67
2023-05-31T09:49:40.367Z,19.90
2023-05-31T09:54:43.675Z,20.07
2023-05-31T09:59:47.756Z,19.87
2023-05-31T10:04:52.732Z,19.71
2023-05-31T10:09:56.275Z,19.88
2023-05-31T10:15:10.439Z,20.10
2023-05-31T10:20:18.920Z,20.25
2023-05-31T10:25:30.934Z,20.42
2023-05-31T10:30:39.731Z,20.49
2023-05-31T10:35:43.135Z,20.55
2023-05-31T10:40:57.129Z,20.68
2023-05-31T10:46:04.067Z,20.82
2023-05-31T10:51:08.529Z,21.01
2023-05-31T10:56:14.807Z,21.13
2023-05-31T11:01:25.849Z,21.13
2023-05-31T11:06:30.346Z,21.31
2023-05-31T11:11:33.809Z,21.54
2023-05-31T11:16:50.614Z,21.77
2023-05-31T11:21:57.344Z,21.82
2023-05-31T11:27:05.386Z,21.96
2023-05-31T11:32:09.144Z,22.00
2023-05-31T11:37:13.861Z,22.04
2023-05-31T11:42:17.583Z,22.17
2023-05-31T11:47:22.724Z,22.46
2023-05-31T11:52:26.457Z,22.52
2023-05-31T11:57:30.381Z,22.59
2023-05-31T12:02:34.906Z,22.60
2023-05-31T12:07:39.971Z,22.65
2023-05-31T12:12:43.897Z,22.69
2023-05-31T12:17:48.146Z,22.92
2023-05-31T12:22:51.752Z,23.19
2023-05-31T12:27:55.979Z,23.37
2023-05-31T12:32:59.452Z,23.44
2023-05-31T12:38:03.010Z,23.40
2023-05-31T12:43:08.031Z,23.46
2023-05-31T12:48:12.884Z,23.41
2023-05-31T12:53:17.542Z,23.44
2023-05-31T12:58:21.189Z,23.67
2023-05-31T13:03:25.032Z,23.90
2023-05-31T13:08:28.816Z,23.99
2023-05-31T13:13:32.765Z,23.94
2023-05-31T13:18:36.154Z,23.87
2023-05-31T13:23:39.872Z,24.06
2023-05-31T13:28:43.299Z,24.27
2023-05-31T13:33:48.619Z,24.65
2023-05-31T13:38:53.644Z,25.39
2023-05-31T13:43:57.015Z,27.30
2023-05-31T13:49:00.324Z,30.83
2023-05-31T13:54:03.940Z,34.43
2023-05-31T13:59:07.355Z,37.58
2023-05-31T14:04:10.897Z,40.63
2023-05-31T14:09:14.487Z,41.73
2023-05-31T14:14:18.238Z,43.45
2023-05-31T14:19:22.135Z,45.60
2023-05-31T14:24:26.057Z,49.36
2023-05-31T14:29:29.476Z,51.07
2023-05-31T14:34:32.998Z,53.34
2023-05-31T14:39:37.127Z,54.20
2023-05-31T14:44:41.654Z,54.51
2023-05-31T14:49:45.274Z,54.39
2023-05-31T14:54:48.805Z,54.39
2023-05-31T14:59:52.201Z,55.19
2023-05-31T15:04:55.819Z,55.82
2023-05-31T15:09:59.436Z,55.71
2023-05-31T15:15:03.055Z,55.52
2023-05-31T15:20:07.561Z,55.59
2023-05-31T15:25:11.218Z,55.93
2023-05-31T15:30:15.002Z,55.71
2023-05-31T15:35:18.460Z,56.16
2023-05-31T15:40:22.383Z,56.00
2023-05-31T15:45:25.784Z,54.09
2023-05-31T15:50:29.403Z,52.89
2023-05-31T15:55:33.094Z,52.97
2023-05-31T16:00:36.802Z,52.46
2023-05-31T16:05:40.155Z,52.58
2023-05-31T16:10:43.516Z,52.30
2023-05-31T16:15:47.284Z,51.86
2023-05-31T16:20:51.010Z,51.56
2023-05-31T16:25:54.719Z,50.69
2023-05-31T16:31:00.035Z,50.05
2023-05-31T16:36:04.762Z,49.63
2023-05-31T16:41:08.354Z,48.75
2023-05-31T16:46:11.775Z,48.45
2023-05-31T16:51:15.395Z,48.64
2023-05-31T16:56:19.095Z,48.35
2023-05-31T17:01:23.130Z,47.86
2023-05-31T17:06:26.749Z,47.47
2023-05-31T17:11:31.258Z,47.09
2023-05-31T17:16:34.588Z,46.62
2023-05-31T17:21:39.154Z,45.88
2023-05-31T17:26:44.545Z,45.50
2023-05-31T17:31:48.300Z,45.59
2023-05-31T17:36:51.840Z,45.61
2023-05-31T17:41:55.420Z,45.33
2023-05-31T17:46:59.179Z,44.66
2023-05-31T17:52:02.596Z,43.27
2023-05-31T17:57:07.029Z,41.23
2023-05-31T18:02:10.590Z,40.17
2023-05-31T18:07:14.576Z,39.37
2023-05-31T18:12:18.730Z,38.73
2023-05-31T18:17:23.050Z,37.50
2023-05-31T18:22:26.656Z,36.22
2023-05-31T18:27:30.029Z,34.90
2023-05-31T18:32:34.770Z,33.57
2023-05-31T18:37:41.909Z,32.17
2023-05-31T18:42:45.582Z,30.56
2023-05-31T18:47:50.902Z,29.10
2023-05-31T18:52:54.406Z,27.52
2023-05-31T18:57:57.919Z,25.91
2023-05-31T19:03:01.406Z,24.55
2023-05-31T19:08:05.257Z,23.41
2023-05-31T19:13:10.690Z,22.44
2023-05-31T19:18:19.234Z,21.56
2023-05-31T19:23:23.505Z,20.78
2023-05-31T19:28:27.111Z,20.08
2023-05-31T19:33:31.430Z,19.52
2023-05-31T19:38:34.805Z,18.95
2023-05-31T19:43:38.160Z,18.48
2023-05-31T19:48:41.586Z,18.04
2023-05-31T19:53:45.207Z,17.70
2023-05-31T19:58:48.826Z,17.38
2023-05-31T20:03:52.776Z,17.04
2023-05-31T20:08:57.385Z,16.73
2023-05-31T20:14:01.003Z,16.48
2023-05-31T20:19:04.609Z,16.24
2023-05-31T20:24:08.224Z,16.02
2023-05-31T20:29:11.823Z,15.83
2023-05-31T20:34:15.470Z,15.69
2023-05-31T20:39:19.383Z,15.56
2023-05-31T20:44:22.761Z,15.44
2023-05-31T20:49:26.526Z,15.34
2023-05-31T20:54:29.936Z,15.28
2023-05-31T20:59:33.760Z,15.23
2023-05-31T21:04:37.277Z,15.18
2023-05-31T21:09:40.909Z,15.12
2023-05-31T21:14:45.027Z,15.07
2023-05-31T21:19:49.000Z,15.02
2023-05-31T21:24:52.777Z,14.97
2023-05-31T21:29:56.288Z,14.90
2023-05-31T21:34:59.803Z,14.84
2023-05-31T21:40:03.321Z,14.78
2023-05-31T21:45:07.661Z,14.68
2023-05-31T21:50:11.347Z,14.58
2023-05-31T21:55:14.895Z,14.49
2023-05-31T22:00:18.872Z,14.40
2023-05-31T22:05:22.133Z,14.32
2023-05-31T22:10:25.949Z,14.26
2023-05-31T22:15:29.565Z,14.21
2023-05-31T22:20:35.960Z,14.15
2023-05-31T22:25:39.362Z,14.08
2023-05-31T22:30:43.018Z,13.97
2023-05-31T22:35:46.600Z,13.78
2023-05-31T22:40:50.210Z,13.61
2023-05-31T22:45:53.829Z,13.44
2023-05-31T22:51:00.795Z,13.28
2023-05-31T22:56:04.853Z,13.13
2023-05-31T23:01:08.374Z,12.97
2023-05-31T23:06:13.919Z,12.83
2023-05-31T23:11:18.166Z,12.69
2023-05-31T23:16:21.734Z,12.57
2023-05-31T23:21:27.624Z,12.56
2023-05-31T23:26:31.064Z,12.64
2023-05-31T23:31:34.697Z,12.75
2023-05-31T23:36:38.404Z,12.84
2023-05-31T23:41:42.640Z,12.89
2023-05-31T23:46:45.849Z,12.90
2023-05-31T23:51:49.378Z,12.88
2023-05-31T23:56:52.781Z,12.82
